Time;durP1;ratioP1;P1;durP2;ratioP2;P2;SDS_P1;SDS_P2;PMS_P1;PMS_P2;Temp;Humidity;BMP_temperature;BMP_pressure;BME280_temperature;BME280_humidity;BME280_pressure;Samples;Min_cycle;Max_cycle;Signal;HPM_P1;HPM_P2
2022/06/19 00:00:11;;;;;;;15.67;2.03;;;;;;;-145.18;100.00;47338.25;4877399;29;20121;-79
2022/06/19 00:02:38;;;;;;;8.63;1.33;;;;;;;-145.18;100.00;47328.50;4876679;29;20553;-81
2022/06/19 00:05:04;;;;;;;12.20;1.70;;;;;;;-145.18;100.00;47293.31;4877527;29;20136;-80
2022/06/19 00:07:29;;;;;;;7.27;2.27;;;;;;;-145.18;100.00;47273.78;4876763;29;20044;-82
2022/06/19 00:09:55;;;;;;;12.80;1.87;;;;;;;-145.18;100.00;47320.69;4877589;29;20045;-81
2022/06/19 00:12:20;;;;;;;18.53;1.97;;;;;;;-145.18;100.00;47250.34;4877140;29;20113;-82
2022/06/19 00:14:46;;;;;;;11.63;1.33;;;;;;;-145.18;100.00;47264.03;4877368;29;20463;-80
2022/06/19 00:17:13;;;;;;;9.53;2.03;;;;;;;-145.18;100.00;47246.44;4876786;29;20037;-81
2022/06/19 00:19:39;;;;;;;11.03;1.60;;;;;;;-145.18;100.00;47246.44;4877440;29;20471;-82
2022/06/19 00:22:05;;;;;;;9.43;1.23;;;;;;;-145.18;100.00;47258.16;4876692;29;20040;-79
2022/06/19 00:24:30;;;;;;;8.80;1.57;;;;;;;-145.18;100.00;47262.06;4876862;29;20040;-81
2022/06/19 00:26:56;;;;;;;12.37;1.50;;;;;;;-145.18;100.00;47252.31;4876599;29;20044;-80
2022/06/19 00:29:22;;;;;;;7.77;1.17;;;;;;;-145.18;100.00;47265.97;4877102;29;20048;-82
2022/06/19 00:31:47;;;;;;;9.23;2.13;;;;;;;-145.18;100.00;47262.06;4877034;29;20040;-81
2022/06/19 00:34:13;;;;;;;10.70;1.87;;;;;;;-145.18;100.00;47230.81;4876723;29;20037;-80
2022/06/19 00:36:38;;;;;;;10.93;1.87;;;;;;;-145.18;100.00;47234.72;4876574;29;20085;-82
2022/06/19 00:39:03;;;;;;;6.37;1.60;;;;;;;-145.18;100.00;47246.44;4876959;29;20383;-82
2022/06/19 00:41:39;;;;;;;13.67;2.03;;;;;;;-145.18;100.00;47254.25;4876075;29;20517;-80
2022/06/19 00:44:06;;;;;;;;;;;;;;;-145.18;100.00;47246.44;4877289;29;20025;-79
2022/06/19 00:46:41;;;;;;;10.30;1.97;;;;;;;-145.18;100.00;47258.16;4876317;29;20433;-81
2022/06/19 00:49:11;;;;;;;14.70;2.23;;;;;;;-145.18;100.00;47307.00;4876621;29;20041;-78
2022/06/19 00:51:37;;;;;;;15.40;1.60;;;;;;;-145.18;100.00;47305.06;4876257;29;20100;-79
2022/06/19 00:54:05;;;;;;;5.20;1.60;;;;;;;-145.18;100.00;47303.09;4876615;29;20037;-80
2022/06/19 00:56:30;;;;;;;11.10;1.57;;;;;;;-145.18;100.00;47287.47;4876246;29;20101;-80
2022/06/19 00:58:56;;;;;;;13.83;1.57;;;;;;;-145.18;100.00;47283.56;4871889;29;20053;-79
2022/06/19 01:01:25;;;;;;;10.30;1.70;;;;;;;-145.18;100.00;47258.16;4857320;29;20124;-78
2022/06/19 01:04:01;;;;;;;11.43;1.30;;;;;;;-145.18;100.00;47262.06;4856164;29;20060;-79
2022/06/19 01:06:27;;;;;;;13.23;1.50;;;;;;;-145.18;100.00;47254.25;4857558;29;20123;-79
2022/06/19 01:08:52;;;;;;;8.03;2.20;;;;;;;-145.18;100.00;47246.44;4858060;29;20045;-80
2022/06/19 01:11:20;;;;;;;13.03;1.30;;;;;;;-145.18;100.00;47240.56;4857416;29;20033;-79
2022/06/19 01:13:45;;;;;;;17.23;1.40;;;;;;;-145.18;100.00;47240.56;4857888;29;20034;-80
2022/06/19 01:16:13;;;;;;;9.30;1.20;;;;;;;-145.18;100.00;47238.63;4857756;29;20075;-79
2022/06/19 01:18:39;;;;;;;7.13;1.10;;;;;;;-145.18;100.00;47246.44;4857654;29;20064;-80
2022/06/19 01:21:16;;;;;;;7.33;1.30;;;;;;;-145.18;100.00;47221.03;4857838;29;20081;-80
2022/06/19 01:23:54;;;;;;;9.10;1.23;;;;;;;-145.18;100.00;47258.16;4857830;29;20029;-78
2022/06/19 01:26:21;;;;;;;3.93;0.70;;;;;;;-145.18;100.00;47234.72;4857739;29;20038;-79
2022/06/19 01:28:56;;;;;;;8.63;1.17;;;;;;;-145.18;100.00;47234.72;4857766;29;20406;-78
2022/06/19 01:31:37;;;;;;;7.50;0.90;;;;;;;-145.18;100.00;47238.63;4857503;29;20175;-80
2022/06/19 01:34:26;;;;;;;8.23;1.20;;;;;;;-145.18;100.00;47234.72;4857925;29;20033;-80
2022/06/19 01:37:01;;;;;;;9.07;0.87;;;;;;;-145.18;100.00;47238.63;4857558;29;20029;-80
2022/06/19 01:39:31;;;;;;;8.33;1.00;;;;;;;-145.18;100.00;47226.91;4874149;29;20513;-81
2022/06/19 01:41:57;;;;;;;9.30;1.17;;;;;;;-145.18;100.00;47236.66;4879318;29;20487;-81
2022/06/19 01:44:22;;;;;;;6.90;0.90;;;;;;;-145.18;100.00;47240.56;4879914;29;20048;-80
2022/06/19 01:46:48;;;;;;;7.37;0.93;;;;;;;-145.18;100.00;47240.56;4862879;29;20041;-80
2022/06/19 01:49:14;;;;;;;7.53;1.33;;;;;;;-145.18;100.00;47242.53;4879581;29;20194;-79
2022/06/19 01:51:39;;;;;;;5.80;1.07;;;;;;;-145.18;100.00;47232.75;4879236;29;20037;-79
2022/06/19 01:54:13;;;;;;;7.97;1.00;;;;;;;-145.18;100.00;47254.25;4879469;29;20037;-80
2022/06/19 01:56:39;;;;;;;7.30;0.70;;;;;;;-145.18;100.00;47262.06;4879396;29;20063;-79
2022/06/19 01:59:10;;;;;;;7.27;1.10;;;;;;;-145.18;100.00;47355.84;4879535;29;20483;-78
2022/06/19 02:04:06;;;;;;;7.17;1.13;;;;;;;-145.18;100.00;46771.75;4872786;23;20053;-79
2022/06/19 02:06:38;;;;;;;6.73;1.10;;;;;;;-145.18;100.00;46695.56;4861079;29;20041;-80
2022/06/19 02:09:05;;;;;;;10.17;1.27;;;;;;;-145.18;100.00;46781.50;4870387;29;20036;-80
2022/06/19 02:11:34;;;;;;;3.57;0.73;;;;;;;-145.18;100.00;46949.50;4879476;29;20635;-80
2022/06/19 02:14:04;;;;;;;6.83;1.07;;;;;;;-145.18;100.00;47332.41;4879303;29;20072;-80
2022/06/19 02:16:29;;;;;;;8.10;0.77;;;;;;;-145.18;100.00;47357.78;4879361;29;20085;-81
2022/06/19 02:18:55;;;;;;;4.47;0.70;;;;;;;-145.18;100.00;47291.38;4879052;29;20037;-81
2022/06/19 02:21:42;;;;;;;6.53;1.13;;;;;;;-145.18;100.00;47287.47;4867729;29;20037;-81
2022/06/19 02:24:12;;;;;;;12.03;1.00;;;;;;;-145.18;100.00;47297.22;4860620;29;20037;-81
2022/06/19 02:26:39;;;;;;;4.53;1.03;;;;;;;-145.18;100.00;47273.78;4860577;29;20041;-81
2022/06/19 02:29:09;;;;;;;7.87;1.23;;;;;;;-145.18;100.00;47299.19;4860618;29;20079;-81
2022/06/19 02:31:37;;;;;;;9.47;0.83;;;;;;;-145.18;100.00;47314.81;4861014;29;20029;-81
2022/06/19 02:34:16;;;;;;;10.47;1.10;;;;;;;-145.18;100.00;47316.78;4843593;29;20065;-80
2022/06/19 02:36:49;;;;;;;4.17;0.67;;;;;;;-145.18;100.00;47312.88;4860398;29;20040;-81
2022/06/19 02:39:40;;;;;;;16.87;1.10;;;;;;;-145.18;100.00;47373.44;4860951;29;20112;-80
2022/06/19 02:42:15;;;;;;;4.57;0.87;;;;;;;-145.18;100.00;47291.38;4860081;29;20116;-79
2022/06/19 02:44:42;;;;;;;10.17;1.30;;;;;;;-145.18;100.00;46898.72;4860559;29;20034;-82
2022/06/19 02:47:08;;;;;;;8.67;1.03;;;;;;;-145.18;100.00;46957.31;4859695;29;20669;-82
2022/06/19 02:49:34;;;;;;;7.53;1.50;;;;;;;-145.18;100.00;46761.97;4860583;29;20033;-83
2022/06/19 02:52:01;;;;;;;12.80;3.50;;;;;;;-145.18;100.00;46697.50;4858494;29;20528;-80
2022/06/19 02:54:26;;;;;;;19.57;4.37;;;;;;;-145.18;100.00;46652.59;4860414;29;20503;-81
2022/06/19 02:56:51;;;;;;;13.97;4.00;;;;;;;-145.18;100.00;46654.53;4863551;29;20127;-81
2022/06/19 02:59:17;;;;;;;10.90;1.60;;;;;;;-145.18;100.00;46654.53;4878723;29;20043;-83
2022/06/19 03:01:42;;;;;;;9.60;1.40;;;;;;;-145.18;100.00;46646.72;4878466;29;20037;-81
2022/06/19 03:04:21;;;;;;;10.63;1.23;;;;;;;-145.18;100.00;46635.00;4878188;29;20089;-81
2022/06/19 03:06:46;;;;;;;6.70;1.10;;;;;;;-145.18;100.00;46621.31;4878015;29;20041;-81
2022/06/19 03:09:12;;;;;;;15.80;2.27;;;;;;;-145.18;100.00;46597.88;4878510;29;20036;-81
2022/06/19 03:11:38;;;;;;;12.93;1.30;;;;;;;-145.18;100.00;46588.13;4878571;29;20033;-81
2022/06/19 03:14:04;;;;;;;10.60;1.33;;;;;;;-145.18;100.00;46578.34;4877934;29;20060;-82
2022/06/19 03:16:29;;;;;;;23.87;2.23;;;;;;;-145.18;100.00;46566.63;4877865;29;20402;-81
2022/06/19 03:18:54;;;;;;;14.03;1.60;;;;;;;-145.18;100.00;46560.78;4877580;29;20537;-82
2022/06/19 03:21:20;;;;;;;11.70;1.70;;;;;;;-145.18;100.00;46566.63;4878140;29;20048;-81
2022/06/19 03:23:45;;;;;;;12.43;2.17;;;;;;;-145.18;100.00;46554.91;4877917;29;20029;-82
2022/06/19 03:26:11;;;;;;;8.20;1.60;;;;;;;-145.18;100.00;46560.78;4878318;29;20084;-81
2022/06/19 03:28:36;;;;;;;9.87;1.27;;;;;;;-145.18;100.00;46560.78;4878014;29;20402;-80
2022/06/19 03:31:02;;;;;;;12.33;1.77;;;;;;;-145.18;100.00;46556.88;4877964;29;20128;-80
2022/06/19 03:33:27;;;;;;;13.60;3.93;;;;;;;-145.18;100.00;46564.69;4877442;29;20033;-81
2022/06/19 03:35:53;;;;;;;10.50;1.37;;;;;;;-145.18;100.00;46566.63;4878041;29;20044;-80
2022/06/19 03:38:19;;;;;;;10.53;1.60;;;;;;;-145.18;100.00;46570.53;4877983;29;20032;-81
2022/06/19 03:40:45;;;;;;;13.83;2.23;;;;;;;-145.18;100.00;46584.22;4878015;29;20044;-81
2022/06/19 03:43:11;;;;;;;14.53;2.20;;;;;;;-145.18;100.00;46580.31;4877298;29;20131;-80
2022/06/19 03:45:37;;;;;;;10.33;1.80;;;;;;;-145.18;100.00;46558.81;4878055;29;20040;-81
2022/06/19 03:48:02;;;;;;;12.60;1.70;;;;;;;-145.18;100.00;46570.53;4877451;29;20029;-80
2022/06/19 03:50:28;;;;;;;12.27;1.80;;;;;;;-145.18;100.00;46574.44;4877835;29;20119;-79
2022/06/19 03:52:53;;;;;;;10.40;1.43;;;;;;;-145.18;100.00;46570.53;4877467;29;20037;-80
2022/06/19 03:55:19;;;;;;;8.47;1.00;;;;;;;-145.18;100.00;46584.22;4876436;29;20116;-80
2022/06/19 03:57:44;;;;;;;9.67;1.37;;;;;;;-145.18;100.00;46617.41;4866566;29;20034;-80
2022/06/19 04:00:14;;;;;;;7.83;1.30;;;;;;;-145.18;100.00;46664.31;4859305;29;20065;-80
2022/06/19 04:02:40;;;;;;;11.40;1.53;;;;;;;-145.18;100.00;46656.50;4858036;29;20057;-80
2022/06/19 04:05:06;;;;;;;11.57;1.23;;;;;;;-145.18;100.00;46656.50;4858661;29;20045;-81
2022/06/19 04:07:31;;;;;;;12.27;1.50;;;;;;;-145.18;100.00;46633.06;4858702;29;20034;-81
2022/06/19 04:10:00;;;;;;;13.53;1.70;;;;;;;-145.18;100.00;46642.81;4858775;29;20049;-82
2022/06/19 04:12:26;;;;;;;10.80;1.47;;;;;;;-145.18;100.00;46636.94;4858712;29;20052;-81
2022/06/19 04:14:52;;;;;;;10.67;1.63;;;;;;;-145.18;100.00;46664.31;4858934;29;20033;-82
2022/06/19 04:17:17;;;;;;;15.67;1.90;;;;;;;-145.18;100.00;46717.03;4858308;29;20544;-82
2022/06/19 04:19:43;;;;;;;11.80;1.33;;;;;;;-145.18;100.00;46797.13;4858830;29;20038;-82
2022/06/19 04:22:08;;;;;;;5.43;1.90;;;;;;;-145.18;100.00;47308.97;4858315;29;20320;-81
2022/06/19 04:24:33;;;;;;;10.20;1.10;;;;;;;-145.18;100.00;47322.63;4859011;29;20561;-81
2022/06/19 04:27:03;;;;;;;10.30;1.10;;;;;;;-145.18;100.00;47310.91;4858311;29;20053;-81
2022/06/19 04:29:28;;;;;;;13.43;1.53;;;;;;;-145.18;100.00;47344.13;4858387;29;20047;-81
2022/06/19 04:31:55;;;;;;;7.30;1.17;;;;;;;-145.18;100.00;47307.00;4858443;29;20043;-81
2022/06/19 04:34:21;;;;;;;8.13;1.00;;;;;;;-145.18;100.00;47281.59;4858391;29;20055;-82
2022/06/19 04:36:46;;;;;;;10.23;1.33;;;;;;;-145.18;100.00;47265.97;4857692;29;20486;-81
2022/06/19 04:39:12;;;;;;;5.53;1.17;;;;;;;-145.18;100.00;47279.66;4857950;29;20448;-81
2022/06/19 04:41:40;;;;;;;9.63;1.10;;;;;;;-145.18;100.00;47252.31;4858453;29;20511;-81
2022/06/19 04:44:11;;;;;;;6.63;1.00;;;;;;;-145.18;100.00;47244.50;4857165;29;20100;-81
2022/06/19 04:46:37;;;;;;;4.33;1.00;;;;;;;-145.18;100.00;47248.41;4857991;29;20449;-81
2022/06/19 04:49:03;;;;;;;7.53;1.20;;;;;;;-145.18;100.00;47223.00;4857431;29;20174;-80
2022/06/19 04:51:28;;;;;;;9.73;1.13;;;;;;;-145.18;100.00;47226.91;4857661;29;20479;-77
2022/06/19 04:53:54;;;;;;;8.80;0.93;;;;;;;-145.18;100.00;47234.72;4857672;29;20072;-80
2022/06/19 04:56:20;;;;;;;9.03;1.23;;;;;;;-145.18;100.00;47236.66;4841964;29;20049;-82
2022/06/19 04:58:46;;;;;;;5.40;1.07;;;;;;;-145.18;100.00;47234.72;4839814;29;20034;-81
2022/06/19 05:01:19;;;;;;;12.03;1.20;;;;;;;-145.18;100.00;47250.34;4840294;29;20073;-81
2022/06/19 05:03:44;;;;;;;5.67;1.13;;;;;;;-145.18;100.00;47281.59;4857753;29;20053;-80
2022/06/19 05:06:10;;;;;;;5.20;1.07;;;;;;;-145.18;100.00;47289.41;4858056;29;20053;-81
2022/06/19 05:08:35;;;;;;;5.17;1.10;;;;;;;-145.18;100.00;47338.25;4858094;29;20057;-80
2022/06/19 05:11:01;;;;;;;6.50;1.20;;;;;;;-145.18;100.00;47336.31;4858146;29;20056;-80
2022/06/19 05:13:27;;;;;;;8.07;1.67;;;;;;;-145.18;100.00;47344.13;4858016;29;20563;-80
2022/06/19 05:16:21;;;;;;;5.80;1.40;;;;;;;-145.18;100.00;47357.78;4861007;29;20029;-80
2022/06/19 05:18:48;;;;;;;9.07;1.27;;;;;;;-145.18;100.00;47324.59;4861309;29;20045;-82
2022/06/19 05:21:14;;;;;;;8.20;1.23;;;;;;;-145.18;100.00;46842.06;4860271;29;20037;-82
2022/06/19 05:23:42;;;;;;;7.70;1.30;;;;;;;-145.18;100.00;46660.41;4861482;29;20038;-80
2022/06/19 05:26:16;;;;;;;7.83;1.97;;;;;;;-145.18;100.00;46644.78;4861849;29;20040;-82
2022/06/19 05:28:42;;;;;;;11.40;1.63;;;;;;;-145.18;100.00;46648.69;4862048;29;20046;-82
2022/06/19 05:31:07;;;;;;;9.93;1.80;;;;;;;-145.18;100.00;46605.69;4861562;29;20045;-82
2022/06/19 05:33:34;;;;;;;12.23;1.70;;;;;;;-145.18;100.00;46593.97;4860974;29;20064;-81
2022/06/19 05:36:00;;;;;;;10.60;1.63;;;;;;;-145.18;100.00;46578.34;4861070;29;20498;-81
2022/06/19 05:38:26;;;;;;;11.90;1.20;;;;;;;-145.18;100.00;46574.44;4861494;29;20698;-80
2022/06/19 05:40:52;;;;;;;13.00;1.30;;;;;;;-145.18;100.00;46562.72;4862075;29;20065;-81
2022/06/19 05:43:19;;;;;;;11.67;1.77;;;;;;;-145.18;100.00;46562.72;4861269;29;20037;-82
2022/06/19 05:46:05;;;;;;;8.00;1.40;;;;;;;-145.18;100.00;46566.63;4861688;29;20044;-81
2022/06/19 05:48:31;;;;;;;11.65;1.55;;;;;;;-145.18;100.00;46570.53;4861306;29;20045;-80
2022/06/19 05:51:10;;;;;;;12.90;1.47;;;;;;;-145.18;100.00;46558.81;4861699;29;20038;-81
2022/06/19 05:53:40;;;;;;;13.40;1.83;;;;;;;-145.18;100.00;46568.59;4861334;29;20631;-81
2022/06/19 05:56:06;;;;;;;12.67;2.70;;;;;;;-145.18;100.00;46551.00;4861520;29;20057;-81
2022/06/19 05:58:32;;;;;;;7.93;1.47;;;;;;;-145.18;100.00;46566.63;4877894;29;20490;-82
2022/06/19 06:00:58;;;;;;;15.13;2.07;;;;;;;-145.18;100.00;46558.81;4868381;29;20037;-83
2022/06/19 06:03:24;;;;;;;13.33;2.07;;;;;;;-145.18;100.00;46558.81;4858037;29;20578;-82
2022/06/19 06:05:50;;;;;;;8.23;1.30;;;;;;;-145.18;100.00;46562.72;4861633;29;20548;-82
2022/06/19 06:08:17;;;;;;;14.00;1.73;;;;;;;-145.18;100.00;46551.00;4861157;29;20038;-82
2022/06/19 06:10:43;;;;;;;11.37;2.33;;;;;;;-145.18;100.00;46547.09;4860534;29;20109;-81
2022/06/19 06:13:08;;;;;;;14.23;1.90;;;;;;;-145.18;100.00;46545.16;4859278;29;20081;-81
2022/06/19 06:15:34;;;;;;;13.40;1.67;;;;;;;-145.18;100.00;46549.06;4861098;29;20116;-81
2022/06/19 06:18:01;;;;;;;12.27;2.27;;;;;;;-145.18;100.00;46545.16;4860566;29;20120;-81
2022/06/19 06:20:27;;;;;;;9.77;1.53;;;;;;;-145.18;100.00;46545.16;4859885;29;20418;-80
2022/06/19 06:22:53;;;;;;;9.90;2.77;;;;;;;-145.18;100.00;46660.41;4859259;29;20037;-80
2022/06/19 06:25:18;;;;;;;16.17;2.40;;;;;;;-145.18;100.00;46662.34;4859989;29;20036;-79
2022/06/19 06:27:43;;;;;;;16.77;2.23;;;;;;;-145.18;100.00;46646.72;4859928;29;20105;-81
2022/06/19 06:30:10;;;;;;;16.57;2.90;;;;;;;-145.18;100.00;46638.91;4859265;29;20255;-80
2022/06/19 06:32:36;;;;;;;19.10;2.60;;;;;;;-145.18;100.00;46640.88;4860595;29;20089;-81
2022/06/19 06:35:01;;;;;;;12.63;2.10;;;;;;;-145.18;100.00;46660.41;4860364;29;20498;-78
2022/06/19 06:37:27;;;;;;;16.00;2.47;;;;;;;-145.18;100.00;46660.41;4860584;29;20037;-77
2022/06/19 06:39:52;;;;;;;17.37;3.00;;;;;;;-145.18;100.00;46660.41;4860378;29;20095;-84
2022/06/19 06:42:17;;;;;;;15.67;2.83;;;;;;;-145.18;100.00;46660.41;4859837;29;20132;-81
2022/06/19 06:44:43;;;;;;;18.07;2.47;;;;;;;-145.18;100.00;46660.41;4859099;29;20033;-82
2022/06/19 06:47:08;;;;;;;15.10;2.57;;;;;;;-145.18;100.00;46660.41;4860034;29;20037;-83
2022/06/19 06:49:33;;;;;;;14.17;2.67;;;;;;;-145.18;100.00;46660.41;4859706;29;20510;-77
2022/06/19 06:51:59;;;;;;;15.27;2.60;;;;;;;-145.18;100.00;46660.41;4858696;29;20041;-73
2022/06/19 06:54:24;;;;;;;18.27;2.30;;;;;;;-145.18;100.00;46660.41;4855520;29;20372;-74
2022/06/19 06:56:49;;;;;;;15.03;2.50;;;;;;;-145.18;100.00;46660.41;4859813;29;20041;-74
2022/06/19 06:59:15;;;;;;;14.47;2.20;;;;;;;-145.18;100.00;46660.41;4856918;29;20489;-73
2022/06/19 07:01:41;;;;;;;17.77;2.47;;;;;;;-145.18;100.00;46660.41;4858472;29;20033;-74
2022/06/19 07:04:07;;;;;;;17.23;4.30;;;;;;;-145.18;100.00;46660.41;4858424;29;20376;-75
2022/06/19 07:06:33;;;;;;;27.80;3.57;;;;;;;-145.18;100.00;46658.44;4858871;29;20569;-75
2022/06/19 07:08:59;;;;;;;58.27;9.50;;;;;;;-145.18;100.00;46656.50;4859283;29;20116;-77
2022/06/19 07:11:28;;;;;;;14.33;2.30;;;;;;;-145.18;100.00;46660.41;4859703;29;20051;-76
2022/06/19 07:13:53;;;;;;;22.70;2.60;;;;;;;-145.18;100.00;46658.44;4859259;29;20025;-77
2022/06/19 07:16:19;;;;;;;25.53;3.20;;;;;;;-145.18;100.00;46654.53;4859925;29;20093;-77
2022/06/19 07:18:44;;;;;;;28.70;4.40;;;;;;;-145.18;100.00;46658.44;4859463;29;20030;-77
2022/06/19 07:21:11;;;;;;;35.17;6.37;;;;;;;-145.18;100.00;46658.44;4858903;29;20069;-77
2022/06/19 07:23:37;;;;;;;14.80;2.47;;;;;;;-145.18;100.00;46656.50;4859370;29;20113;-75
2022/06/19 07:26:02;;;;;;;29.40;4.40;;;;;;;-145.18;100.00;46640.88;4859321;29;20406;-74
2022/06/19 07:28:28;;;;;;;20.60;3.50;;;;;;;-145.18;100.00;46656.50;4859325;29;20049;-74
2022/06/19 07:30:53;;;;;;;18.87;3.40;;;;;;;-145.18;100.00;46656.50;4859264;29;20034;-73
2022/06/19 07:33:19;;;;;;;16.27;2.53;;;;;;;-145.18;100.00;46652.59;4839555;29;20037;-74
2022/06/19 07:35:44;;;;;;;16.80;2.77;;;;;;;-145.18;100.00;46654.53;4840806;29;20045;-74
2022/06/19 07:38:10;;;;;;;20.67;3.23;;;;;;;-145.18;100.00;46658.44;4839922;29;20037;-74
2022/06/19 07:40:36;;;;;;;18.23;2.47;;;;;;;-145.18;100.00;46652.59;4840976;29;20417;-73
2022/06/19 07:43:03;;;;;;;24.00;3.40;;;;;;;-145.18;100.00;46652.59;4840305;29;20038;-73
2022/06/19 07:51:02;;;;;;;16.60;2.27;;;;;;;-145.18;100.00;46652.59;4872632;29;20043;-74
2022/06/19 07:53:28;;;;;;;13.03;2.40;;;;;;;-145.18;100.00;46640.88;4859253;29;20363;-74
2022/06/19 07:55:53;;;;;;;14.77;2.13;;;;;;;-145.18;100.00;46638.91;4876431;29;20327;-74
2022/06/19 07:58:18;;;;;;;14.07;3.03;;;;;;;-145.18;100.00;46640.88;4876445;29;20041;-75
2022/06/19 08:00:44;;;;;;;12.93;2.50;;;;;;;-145.18;100.00;46607.66;4876548;29;20041;-74
2022/06/19 08:03:09;;;;;;;18.93;2.70;;;;;;;-145.18;100.00;46601.78;4866867;29;20051;-74
2022/06/19 08:05:37;;;;;;;23.63;3.17;;;;;;;-145.18;100.00;46603.75;4876459;29;20044;-75
2022/06/19 08:08:07;;;;;;;12.43;2.43;;;;;;;-145.18;100.00;46603.75;4894992;29;20037;-75
2022/06/19 08:10:36;;;;;;;13.80;3.27;;;;;;;-145.18;100.00;46601.78;4895520;29;20047;-75
2022/06/19 08:13:02;;;;;;;15.70;3.10;;;;;;;-145.18;100.00;46597.88;4894948;29;20115;-75
2022/06/19 08:15:29;;;;;;;21.10;2.87;;;;;;;-145.18;100.00;46597.88;4894969;29;20041;-75
2022/06/19 08:17:55;;;;;;;19.13;2.70;;;;;;;-145.18;100.00;46595.94;4894495;29;20152;-75
2022/06/19 08:20:21;;;;;;;39.53;6.60;;;;;;;-145.18;100.00;46601.78;4895141;29;20036;-75
2022/06/19 08:22:47;;;;;;;36.03;6.03;;;;;;;-145.18;100.00;46599.84;4893992;29;20067;-75
2022/06/19 08:25:14;;;;;;;61.50;11.57;;;;;;;-145.18;100.00;46597.88;4895010;29;20063;-75
2022/06/19 08:27:42;;;;;;;17.70;4.03;;;;;;;-145.18;100.00;46597.88;4893066;29;20421;-75
2022/06/19 08:30:11;;;;;;;15.10;2.47;;;;;;;-145.18;100.00;46603.75;4894565;29;20277;-75
2022/06/19 08:32:36;;;;;;;18.63;2.77;;;;;;;-145.18;100.00;46607.66;4894633;29;20119;-76
2022/06/19 08:35:01;;;;;;;18.80;2.90;;;;;;;-145.18;100.00;46603.75;4894736;29;20047;-76
2022/06/19 08:37:27;;;;;;;15.40;2.63;;;;;;;-145.18;100.00;46611.56;4881895;29;20049;-76
2022/06/19 08:39:53;;;;;;;15.33;2.77;;;;;;;-145.18;100.00;46609.59;4875829;29;20048;-76
2022/06/19 08:42:30;;;;;;;17.77;3.67;;;;;;;-145.18;100.00;46603.75;4875162;29;20052;-76
2022/06/19 08:45:07;;;;;;;20.03;3.10;;;;;;;-145.18;100.00;46601.78;4875648;29;20498;-76
2022/06/19 08:47:46;;;;;;;13.97;2.53;;;;;;;-145.18;100.00;46607.66;4838243;29;1120829;-76
2022/06/19 08:50:20;;;;;;;9.53;2.03;;;;;;;-145.18;100.00;46607.66;4876427;29;20041;-77
2022/06/19 08:53:13;;;;;;;14.37;2.40;;;;;;;-145.18;100.00;46607.66;4856053;29;20033;-76
2022/06/19 08:55:57;;;;;;;15.00;2.63;;;;;;;-145.18;100.00;46609.59;4858072;29;20029;-77
2022/06/19 08:59:00;;;;;;;13.33;2.67;;;;;;;-145.18;100.00;46607.66;4858092;29;20123;-77
2022/06/19 09:01:41;;;;;;;14.63;2.80;;;;;;;-145.18;100.00;46607.66;4873467;29;20540;-77
2022/06/19 09:07:06;;;;;;;18.10;3.53;;;;;;;-145.18;100.00;46611.56;4874889;29;20073;-77
2022/06/19 09:09:44;;;;;;;16.73;2.70;;;;;;;-145.18;100.00;46609.59;4875675;29;20077;-77
2022/06/19 09:12:25;;;;;;;21.47;3.50;;;;;;;-145.18;100.00;46613.50;4875281;29;20474;-77
2022/06/19 09:15:00;;;;;;;13.73;3.10;;;;;;;-145.18;100.00;46611.56;4872538;29;20501;-77
2022/06/19 09:17:31;;;;;;;14.57;2.83;;;;;;;-145.18;100.00;46615.47;4875290;29;20073;-77
2022/06/19 09:20:08;;;;;;;13.57;2.93;;;;;;;-145.18;100.00;46613.50;4873090;29;20475;-78
2022/06/19 09:22:56;;;;;;;10.10;2.83;;;;;;;-145.18;100.00;46613.50;4872389;29;20132;-77
2022/06/19 09:25:28;;;;;;;9.37;2.00;;;;;;;-145.18;100.00;46615.47;4872816;29;20021;-78
2022/06/19 09:28:09;;;;;;;13.53;2.53;;;;;;;-145.18;100.00;46611.56;4874869;29;20108;-77
2022/06/19 09:30:46;;;;;;;13.40;2.10;;;;;;;-145.18;100.00;46615.47;4857391;29;20109;-78
2022/06/19 09:33:14;;;;;;;12.13;2.00;;;;;;;-145.18;100.00;46617.41;4861193;29;20657;-75
2022/06/19 09:35:57;;;;;;;6.90;1.80;;;;;;;-145.18;100.00;46619.38;4875944;29;20073;-78
2022/06/19 09:38:40;;;;;;;13.50;2.30;;;;;;;-145.18;100.00;46625.22;4894675;29;20496;-78
2022/06/19 09:41:11;;;;;;;10.37;2.17;;;;;;;-145.18;100.00;46631.09;4892046;29;20545;-78
2022/06/19 09:43:52;;;;;;;7.27;1.60;;;;;;;-145.18;100.00;46631.09;4875941;29;20486;-78
2022/06/19 09:46:43;;;;;;;13.13;2.00;;;;;;;-145.18;100.00;46636.94;4876131;29;20072;-77
2022/06/19 09:49:29;;;;;;;11.17;1.90;;;;;;;-145.18;100.00;46635.00;4874421;29;20443;-78
2022/06/19 09:52:31;;;;;;;11.95;2.15;;;;;;;-145.18;100.00;46633.06;4875817;29;20045;-78
2022/06/19 09:55:07;;;;;;;5.73;1.43;;;;;;;-145.18;100.00;46636.94;4875221;29;20513;-78
2022/06/19 09:57:44;;;;;;;;;;;;;;;-145.18;100.00;46638.91;4876449;29;20467;-78
2022/06/19 10:00:17;;;;;;;10.70;2.35;;;;;;;-145.18;100.00;46636.94;4874940;29;20411;-78
2022/06/19 10:02:45;;;;;;;6.27;1.40;;;;;;;-145.18;100.00;46636.94;4881337;29;20383;-76
2022/06/19 10:05:39;;;;;;;9.93;1.93;;;;;;;-145.18;100.00;46638.91;4877604;29;20494;-76
2022/06/19 10:08:28;;;;;;;7.87;1.80;;;;;;;-145.18;100.00;46636.94;4878933;29;20431;-78
2022/06/19 10:11:15;;;;;;;6.47;1.87;;;;;;;-145.18;100.00;46635.00;4879093;29;20029;-78
2022/06/19 10:14:24;;;;;;;9.77;1.93;;;;;;;-145.18;100.00;46640.88;4876714;29;20036;-78
2022/06/19 10:17:04;;;;;;;8.07;1.53;;;;;;;-145.18;100.00;46636.94;4861065;29;20048;-78
2022/06/19 10:20:07;;;;;;;10.43;2.00;;;;;;;-145.18;100.00;46635.00;4878225;29;20136;-78
2022/06/19 10:22:50;;;;;;;11.73;2.20;;;;;;;-145.18;100.00;46631.09;4878777;29;20036;-79
2022/06/19 10:25:43;;;;;;;8.73;1.60;;;;;;;-145.18;100.00;46638.91;4879028;29;20060;-79
2022/06/19 10:28:20;;;;;;;17.00;2.40;;;;;;;-145.18;100.00;46636.94;4878535;29;20033;-79
2022/06/19 10:31:19;;;;;;;12.37;2.03;;;;;;;-145.18;100.00;46633.06;4878776;29;20108;-79
2022/06/19 10:33:55;;;;;;;6.83;2.17;;;;;;;-145.18;100.00;46636.94;4878205;29;20025;-79
2022/06/19 10:36:40;;;;;;;8.80;1.80;;;;;;;-145.18;100.00;46638.91;4878781;29;20032;-77
2022/06/19 10:39:20;;;;;;;10.07;2.10;;;;;;;-145.18;100.00;46631.09;4878639;29;20614;-78
2022/06/19 10:42:00;;;;;;;11.53;2.53;;;;;;;-145.18;100.00;46638.91;4877569;29;20025;-78
2022/06/19 10:44:50;;;;;;;10.73;2.23;;;;;;;-145.18;100.00;46633.06;4876508;29;20032;-79
2022/06/19 10:47:33;;;;;;;14.50;2.37;;;;;;;-145.18;100.00;46636.94;4878135;29;20093;-78
2022/06/19 10:49:59;;;;;;;7.53;2.17;;;;;;;-145.18;100.00;46638.91;4878023;29;20072;-77
2022/06/19 10:52:34;;;;;;;12.30;2.13;;;;;;;-145.18;100.00;46636.94;4878037;29;20060;-78
2022/06/19 10:55:10;;;;;;;18.17;2.42;;;;;;;-145.18;100.00;46640.88;4877629;29;20048;-78
2022/06/19 10:57:41;;;;;;;13.67;2.40;;;;;;;-145.18;100.00;46635.00;4878378;29;20112;-78
2022/06/19 11:00:08;;;;;;;13.70;2.23;;;;;;;-145.18;100.00;46635.00;4877516;29;20029;-77
2022/06/19 11:05:34;;;;;;;13.93;2.03;;;;;;;-145.18;100.00;46635.00;4877849;29;20795;-78
2022/06/19 11:08:00;;;;;;;7.47;1.70;;;;;;;-145.18;100.00;46640.88;4877336;29;20060;-78
2022/06/19 11:10:44;;;;;;;14.07;2.77;;;;;;;-145.18;100.00;46640.88;4860428;29;20083;-78
2022/06/19 11:13:11;;;;;;;13.93;2.80;;;;;;;-145.18;100.00;46640.88;4877058;29;20060;-78
2022/06/19 11:15:37;;;;;;;15.00;2.40;;;;;;;-145.18;100.00;46635.00;4877779;29;20036;-78
2022/06/19 11:18:18;;;;;;;19.23;3.57;;;;;;;-145.18;100.00;46636.94;4877832;29;20033;-78
2022/06/19 11:20:58;;;;;;;11.90;2.97;;;;;;;-145.18;100.00;46636.94;4877735;29;20124;-78
2022/06/19 11:23:34;;;;;;;19.77;2.50;;;;;;;-145.18;100.00;46635.00;4877844;29;20041;-78
2022/06/19 11:26:05;;;;;;;14.10;2.93;;;;;;;-145.18;100.00;46635.00;4877331;29;20035;-78
2022/06/19 11:28:44;;;;;;;13.93;3.20;;;;;;;-145.18;100.00;46631.09;4877375;29;20044;-78
2022/06/19 11:31:19;;;;;;;11.10;2.20;;;;;;;-145.18;100.00;46636.94;4877877;29;20036;-78